Time;durP1;ratioP1;P1;durP2;ratioP2;P2;SDS_P1;SDS_P2;PMS_P1;PMS_P2;Temp;Humidity;BMP_temperature;BMP_pressure;BME280_temperature;BME280_humidity;BME280_pressure;Samples;Min_cycle;Max_cycle;Signal;HPM_P1;HPM_P2
2023/04/24 00:08:14;;;;;;;9.53;7.03;;;8.70;1.00;;;;;;8237107;28;20222;-68
2023/04/24 00:12:41;;;;;;;6.30;5.13;;;8.60;99.90;;;;;;8283911;28;20182;-66
2023/04/24 00:16:57;;;;;;;6.63;4.90;;;8.50;1.00;;;;;;8288893;28;20198;-67
2023/04/24 00:21:00;;;;;;;6.93;5.60;;;8.30;1.00;;;;;;8300667;28;20199;-66
2023/04/24 00:25:19;;;;;;;7.27;5.27;;;8.20;99.90;;;;;;8302780;28;20191;-67
2023/04/24 00:29:49;;;;;;;6.43;5.27;;;8.20;1.00;;;;;;8285330;28;20214;-67
2023/04/24 00:34:20;;;;;;;6.37;5.40;;;8.10;99.90;;;;;;8282835;28;20186;-67
2023/04/24 00:38:47;;;;;;;6.63;5.20;;;8.00;99.90;;;;;;8272764;28;20198;-66
2023/04/24 00:42:53;;;;;;;5.87;4.50;;;8.00;1.00;;;;;;8283224;28;20197;-70
2023/04/24 00:47:38;;;;;;;9.70;6.73;;;7.80;1.00;;;;;;8283546;28;20222;-70
2023/04/24 00:51:45;;;;;;;6.53;5.27;;;7.80;1.00;;;;;;8281587;28;20226;-69
2023/04/24 01:00:33;;;;;;;8.50;6.73;;;7.70;1.00;;;;;;8293827;28;20229;-66
2023/04/24 01:05:27;;;;;;;;;;;;;;;;;;;;;
2023/04/24 01:15:00;;;;;;;7.90;5.73;;;7.50;99.90;;;;;;8291907;28;20252;-69
2023/04/24 01:19:09;;;;;;;8.53;5.70;;;7.50;8.90;;;;;;8256028;28;20199;-70
2023/04/24 01:23:20;;;;;;;11.83;7.47;;;7.40;1.00;;;;;;8283201;28;20187;-67
2023/04/24 01:27:27;;;;;;;11.73;8.27;;;7.30;99.90;;;;;;8307417;28;20278;-66
2023/04/24 01:31:32;;;;;;;10.90;7.53;;;7.40;99.90;;;;;;8301735;28;20214;-66
2023/04/24 01:35:51;;;;;;;12.37;7.87;;;7.30;99.90;;;;;;8301931;28;20220;-66
2023/04/24 01:39:55;;;;;;;18.70;10.50;;;7.30;99.90;;;;;;8306175;28;20186;-68
2023/04/24 01:44:03;;;;;;;18.97;11.70;;;7.20;99.90;;;;;;8281085;28;20217;-67
2023/04/24 01:52:43;;;;;;;;;;;;;;;;;;;;;
2023/04/24 01:56:58;;;;;;;17.67;10.40;;;7.40;99.90;;;;;;8304313;28;20229;-68
2023/04/24 02:01:43;;;;;;;10.00;7.37;;;7.30;99.90;;;;;;8294373;28;20190;-72
2023/04/24 02:06:27;;;;;;;7.90;5.57;;;7.20;99.90;;;;;;8276138;28;20285;-71
2023/04/24 02:11:07;;;;;;;10.30;7.47;;;7.00;99.90;;;;;;8274617;28;20226;-70
2023/04/24 02:16:07;;;;;;;21.77;13.83;;;6.90;99.90;;;;;;8290365;28;20202;-68
2023/04/24 02:20:17;;;;;;;15.37;10.00;;;7.00;99.90;;;;;;8142116;28;20225;-70
2023/04/24 02:24:30;;;;;;;14.87;9.43;;;7.00;99.90;;;;;;8252395;28;20190;-68
2023/04/24 02:33:55;;;;;;;15.90;10.37;;;6.90;99.90;;;;;;8091799;29;20195;-69
2023/04/24 02:38:32;;;;;;;16.37;11.40;;;6.90;99.90;;;;;;8164437;28;20247;-70
2023/04/24 02:43:04;;;;;;;15.07;9.93;;;6.90;99.90;;;;;;8226398;28;20188;-70
2023/04/24 02:47:18;;;;;;;15.07;10.37;;;6.90;99.90;;;;;;8226848;28;20212;-69
2023/04/24 02:51:40;;;;;;;;;;;;;;;;;;;;;
2023/04/24 02:56:12;;;;;;;14.43;10.40;;;7.00;99.90;;;;;;8224193;28;20216;-67
2023/04/24 03:00:16;;;;;;;11.07;8.93;;;7.00;99.90;;;;;;8273654;28;20213;-68
2023/04/24 03:08:54;;;;;;;15.60;11.77;;;7.00;99.90;;;;;;8273065;28;20218;-68
2023/04/24 03:13:21;;;;;;;15.97;11.00;;;7.00;99.90;;;;;;8294756;28;20190;-67
2023/04/24 03:17:44;;;;;;;15.07;11.03;;;6.80;99.90;;;;;;8281886;28;20195;-68
2023/04/24 03:22:04;;;;;;;11.23;8.93;;;6.80;99.90;;;;;;8277225;28;20214;-68
2023/04/24 03:26:34;;;;;;;11.23;7.23;;;6.60;99.90;;;;;;8293863;28;20195;-67
2023/04/24 03:30:35;;;;;;;10.03;7.03;;;6.50;99.90;;;;;;8302603;28;20238;-68
2023/04/24 03:34:52;;;;;;;;;;;;;;;;;;;;;
2023/04/24 03:39:29;;;;;;;;;;;;;;;;;;;;;
2023/04/24 03:43:49;;;;;;;9.83;7.00;;;6.20;99.90;;;;;;8300110;28;20241;-70
2023/04/24 03:48:12;;;;;;;;;;;;;;;;;;;;;
2023/04/24 03:52:19;;;;;;;8.00;6.83;;;6.20;99.90;;;;;;8303125;28;20215;-67
2023/04/24 03:56:20;;;;;;;13.30;8.37;;;6.20;99.90;;;;;;8291875;28;20207;-68
2023/04/24 04:00:25;;;;;;;11.37;7.60;;;6.30;99.90;;;;;;8289617;28;20199;-68
2023/04/24 04:04:38;;;;;;;22.03;13.67;;;6.50;99.90;;;;;;8283779;28;20246;-68
2023/04/24 04:08:54;;;;;;;40.67;26.60;;;6.90;99.90;;;;;;8277662;28;20330;-68
2023/04/24 04:13:01;;;;;;;76.97;55.17;;;7.10;99.90;;;;;;8302328;28;20214;-67
2023/04/24 04:17:12;;;;;;;41.30;26.77;;;7.20;99.90;;;;;;8299660;28;20183;-67
2023/04/24 04:21:20;;;;;;;20.07;14.77;;;7.20;99.90;;;;;;8293651;28;20215;-70
2023/04/24 04:25:33;;;;;;;14.50;9.57;;;7.20;99.90;;;;;;8278919;28;20182;-70
2023/04/24 04:29:51;;;;;;;9.93;6.50;;;7.20;99.90;;;;;;8277624;28;20253;-69
2023/04/24 04:33:54;;;;;;;7.77;6.00;;;7.60;99.90;;;;;;8278779;28;20281;-70
2023/04/24 04:38:08;;;;;;;7.07;5.83;;;8.40;99.90;;;;;;8280198;28;20186;-68
2023/04/24 04:42:18;;;;;;;6.43;4.57;;;9.20;99.90;;;;;;8185050;28;20288;-68
2023/04/24 04:46:38;;;;;;;5.30;4.57;;;9.80;99.90;;;;;;8175430;28;20199;-66
2023/04/24 04:51:08;;;;;;;5.20;3.57;;;10.20;99.90;;;;;;8172325;28;20221;-69
2023/04/24 04:55:40;;;;;;;4.97;3.70;;;10.70;99.90;;;;;;8175303;28;20208;-69
2023/04/24 04:59:52;;;;;;;6.87;3.37;;;11.10;99.90;;;;;;8166116;28;20250;-68
2023/04/24 05:03:59;;;;;;;3.73;2.90;;;11.50;99.90;;;;;;8176518;28;20335;-68
2023/04/24 05:08:07;;;;;;;3.73;2.40;;;11.90;99.90;;;;;;8177859;28;20229;-68
2023/04/24 05:12:23;;;;;;;2.67;2.40;;;12.40;1.00;;;;;;8223245;28;20325;-69
2023/04/24 05:16:30;;;;;;;3.47;2.43;;;12.80;99.90;;;;;;8281264;28;20194;-68
2023/04/24 05:20:31;;;;;;;4.30;2.50;;;13.20;99.90;;;;;;8284107;28;20186;-68
2023/04/24 05:24:55;;;;;;;;;;;;;;;;;;;;;
2023/04/24 05:29:00;;;;;;;5.10;2.77;;;13.60;84.10;;;;;;8302499;28;20250;-67
2023/04/24 05:33:03;;;;;;;4.47;3.30;;;13.80;45.50;;;;;;8287638;28;20191;-68
2023/04/24 05:37:17;;;;;;;4.87;2.97;;;14.10;27.80;;;;;;8281380;28;20194;-68
2023/04/24 05:41:24;;;;;;;4.40;3.37;;;14.40;14.80;;;;;;8280168;28;20264;-66
2023/04/24 05:50:20;;;;;;;;;;;;;;;;;;;;;
2023/04/24 05:54:35;;;;;;;7.83;2.80;;;15.40;1.00;;;;;;8304158;28;20214;-67
2023/04/24 05:58:47;;;;;;;8.03;2.37;;;15.60;1.00;;;;;;8285002;28;20266;-66
2023/04/24 06:03:23;;;;;;;3.27;2.50;;;15.70;1.00;;;;;;8303695;28;20275;-64
2023/04/24 06:07:51;;;;;;;3.87;3.20;;;15.90;1.00;;;;;;8283858;28;20260;-66
2023/04/24 06:12:39;;;;;;;5.13;2.77;;;15.80;1.00;;;;;;8292051;28;20263;-67
2023/04/24 06:17:13;;;;;;;3.67;2.70;;;15.90;1.00;;;;;;8275989;28;20195;-67
2023/04/24 06:21:22;;;;;;;2.97;2.67;;;16.00;1.00;;;;;;8296408;28;20210;-67
2023/04/24 06:25:35;;;;;;;3.97;3.30;;;16.20;1.00;;;;;;8291100;28;20217;-67
2023/04/24 06:30:00;;;;;;;3.73;2.30;;;16.30;1.00;;;;;;8288105;28;20302;-66
2023/04/24 06:34:30;;;;;;;3.73;2.20;;;16.10;1.00;;;;;;8270106;28;20238;-65
2023/04/24 06:38:52;;;;;;;4.10;2.53;;;16.10;1.00;;;;;;8276645;28;20202;-67
2023/04/24 06:49:03;;;;;;;2.80;2.40;;;16.10;1.00;;;;;;8236552;28;20226;-67
2023/04/24 06:58:45;;;;;;;;;;;;;;;;;;;;;
2023/04/24 07:08:41;;;;;;;2.50;1.57;;;16.50;1.00;;;;;;8294839;28;20198;-67
2023/04/24 07:13:35;;;;;;;;;;;;;;;;;;;;;
2023/04/24 07:33:33;;;;;;;2.63;2.23;;;15.90;1.00;;;;;;8194346;28;20208;-65
2023/04/24 07:37:50;;;;;;;;;;;;;;;;;;;;;
2023/04/24 07:42:26;;;;;;;2.73;1.97;;;16.20;1.00;;;;;;8151467;29;20222;-67
2023/04/24 07:47:39;;;;;;;2.33;1.70;;;16.40;1.00;;;;;;8115507;29;20197;-67
2023/04/24 08:02:30;;;;;;;2.50;1.63;;;17.30;1.00;;;;;;8203914;28;20360;-67
2023/04/24 08:21:34;;;;;;;1.93;1.57;;;18.90;1.00;;;;;;8204848;28;20373;-68
2023/04/24 08:26:26;;;;;;;2.13;1.40;;;18.80;1.00;;;;;;8206349;28;20233;-66
2023/04/24 08:36:00;;;;;;;31.87;4.23;;;18.70;1.00;;;;;;7949329;29;20217;-66
2023/04/24 08:40:37;;;;;;;4.17;1.40;;;18.90;1.00;;;;;;8023902;29;20191;-65
2023/04/24 08:45:22;;;;;;;;;;;;;;;;;;;;;
2023/04/24 08:54:15;;;;;;;;;;;;;;;;;;;;;
2023/04/24 09:08:19;;;;;;;;;;;;;;;;;;;;;
2023/04/24 09:12:36;;;;;;;1.80;1.50;;;18.30;1.00;;;;;;8227519;28;20220;-71
2023/04/24 09:17:28;;;;;;;;;;;;;;;;;;;;;
2023/04/24 09:22:07;;;;;;;2.30;1.57;;;18.20;1.00;;;;;;8224085;28;20247;-70
2023/04/24 09:26:37;;;;;;;2.27;1.30;;;17.40;1.00;;;;;;8322211;28;20194;-69
2023/04/24 09:30:51;;;;;;;1.67;1.40;;;17.10;1.00;;;;;;8331687;28;20217;-70
2023/04/24 09:45:30;;;;;;;2.77;2.13;;;16.30;1.00;;;;;;8353886;28;20193;-70
2023/04/24 09:50:09;;;;;;;3.07;1.53;;;16.40;1.00;;;;;;8359334;28;20243;-70
2023/04/24 09:59:44;;;;;;;2.07;1.27;;;16.20;1.00;;;;;;8362183;28;20228;-69
2023/04/24 10:04:10;;;;;;;1.87;0.90;;;16.50;1.00;;;;;;8335239;28;20262;-71
2023/04/24 10:08:23;;;;;;;2.43;1.13;;;17.10;1.00;;;;;;8335903;28;20263;-70
2023/04/24 10:12:55;;;;;;;1.27;0.80;;;17.30;1.00;;;;;;8340148;28;20193;-70
2023/04/24 10:17:05;;;;;;;1.97;1.20;;;17.30;1.00;;;;;;8334447;28;20206;-66
2023/04/24 10:21:29;;;;;;;;;;;;;;;;;;;;;
2023/04/24 10:25:39;;;;;;;1.03;0.90;;;16.90;1.00;;;;;;8359368;28;20220;-65
2023/04/24 10:34:31;;;;;;;0.80;0.77;;;17.30;1.00;;;;;;8195581;28;20203;-65
2023/04/24 10:38:42;;;;;;;2.27;0.83;;;17.00;1.00;;;;;;8175423;28;20193;-65
2023/04/24 10:43:11;;;;;;;1.50;0.87;;;16.80;1.00;;;;;;8201227;28;20408;-66
2023/04/24 10:47:15;;;;;;;3.47;0.93;;;16.60;1.00;;;;;;8348914;28;20222;-65
2023/04/24 10:52:16;;;;;;;1.33;0.53;;;16.60;1.00;;;;;;8345989;28;20264;-66
2023/04/24 10:56:28;;;;;;;1.60;0.60;;;16.80;1.00;;;;;;8336454;28;20215;-69
2023/04/24 11:00:59;;;;;;;3.47;0.90;;;16.50;1.00;;;;;;8303504;28;20229;-70
2023/04/24 11:05:23;;;;;;;;;;;;;;;;;;;;;
2023/04/24 11:10:02;;;;;;;2.43;1.00;;;16.20;1.00;;;;;;8305833;28;20250;-70
2023/04/24 11:14:21;;;;;;;1.90;0.87;;;16.60;1.00;;;;;;8254944;28;20199;-71
2023/04/24 11:18:50;;;;;;;1.87;1.07;;;16.80;1.00;;;;;;8288445;28;20206;-69
2023/04/24 11:23:09;;;;;;;2.40;1.23;;;17.00;1.00;;;;;;8290922;28;20182;-70
2023/04/24 11:27:27;;;;;;;1.83;1.13;;;17.10;1.00;;;;;;8285089;28;20221;-70
2023/04/24 11:31:48;;;;;;;2.90;1.13;;;17.00;1.00;;;;;;8340642;28;20343;-70
2023/04/24 11:35:52;;;;;;;1.77;1.37;;;16.80;1.00;;;;;;8368181;28;20185;-69
2023/04/24 11:40:38;;;;;;;;;;;;;;;;;;;;;
2023/04/24 11:45:27;;;;;;;1.53;1.07;;;16.50;1.00;;;;;;8362066;28;20216;-70
2023/04/24 11:49:37;;;;;;;1.50;1.30;;;16.30;1.00;;;;;;8348993;28;20213;-71
2023/04/24 11:54:00;;;;;;;1.70;1.30;;;16.20;1.00;;;;;;8348235;28;20198;-69
2023/04/24 11:58:12;;;;;;;1.77;1.60;;;16.20;1.00;;;;;;8349395;28;20209;-69
2023/04/24 12:02:34;;;;;;;1.80;1.07;;;16.30;1.00;;;;;;8340519;28;20197;-70
2023/04/24 12:06:56;;;;;;;1.70;1.20;;;16.40;1.00;;;;;;8360529;28;20197;-70
2023/04/24 12:11:17;;;;;;;;;;;;;;;;;;;;;
2023/04/24 12:20:58;;;;;;;;;;;;;;;;;;;;;
2023/04/24 12:29:59;;;;;;;2.13;1.20;;;16.00;1.00;;;;;;8317804;28;20221;-69
2023/04/24 12:59:58;;;;;;;2.27;1.40;;;17.20;1.00;;;;;;8430362;23;20229;-71
2023/04/24 13:04:05;;;;;;;2.47;1.20;;;17.40;1.00;;;;;;8286808;28;20202;-69
2023/04/24 13:08:17;;;;;;;2.07;1.30;;;17.50;1.00;;;;;;8284742;28;20287;-69
2023/04/24 13:12:40;;;;;;;3.37;1.40;;;17.60;1.00;;;;;;8267286;28;20236;-69
2023/04/24 13:16:57;;;;;;;3.50;1.30;;;17.60;1.00;;;;;;8268434;28;20202;-70
2023/04/24 13:21:11;;;;;;;2.63;1.83;;;17.20;1.00;;;;;;8270543;28;20215;-69
2023/04/24 13:30:45;;;;;;;1.40;1.30;;;15.80;1.00;;;;;;8291905;28;20223;-69
2023/04/24 13:34:52;;;;;;;1.80;1.53;;;14.80;1.00;;;;;;8275177;28;20199;-70
2023/04/24 13:38:59;;;;;;;1.40;1.17;;;14.00;7.50;;;;;;8282958;28;20192;-70
2023/04/24 13:43:00;;;;;;;1.30;1.20;;;13.50;98.20;;;;;;8313050;28;20310;-70
2023/04/24 13:47:23;;;;;;;2.40;1.67;;;13.30;99.90;;;;;;8307690;28;20192;-70
2023/04/24 13:51:26;;;;;;;1.77;1.20;;;13.20;99.90;;;;;;8322956;28;20220;-69
2023/04/24 13:55:41;;;;;;;2.63;1.40;;;13.20;99.90;;;;;;8310607;28;20235;-70
2023/04/24 13:59:48;;;;;;;2.70;1.10;;;13.30;99.90;;;;;;8303926;28;20214;-69
2023/04/24 14:04:07;;;;;;;1.77;1.17;;;13.30;99.90;;;;;;8307049;28;20193;-69
2023/04/24 14:08:17;;;;;;;0.87;0.87;;;13.50;99.90;;;;;;8304494;28;20272;-69
2023/04/24 14:12:41;;;;;;;1.23;1.13;;;13.80;99.90;;;;;;8304831;28;20210;-69
2023/04/24 14:17:00;;;;;;;3.40;1.00;;;14.20;99.90;;;;;;8300128;28;20197;-70
2023/04/24 14:21:18;;;;;;;1.20;1.00;;;14.60;91.30;;;;;;8318599;28;20208;-68
2023/04/24 14:25:28;;;;;;;1.40;1.10;;;14.80;58.20;;;;;;8312181;28;20198;-70
2023/04/24 14:29:49;;;;;;;1.50;1.10;;;15.00;28.60;;;;;;8300295;28;20221;-69
2023/04/24 14:33:58;;;;;;;2.20;1.93;;;15.10;17.00;;;;;;8299214;28;20240;-70
2023/04/24 14:38:20;;;;;;;3.20;2.47;;;15.20;9.40;;;;;;8297066;28;20278;-70
2023/04/24 14:43:08;;;;;;;3.93;2.50;;;15.20;14.80;;;;;;8300368;28;20332;-71
2023/04/24 14:47:21;;;;;;;2.60;2.20;;;15.30;17.30;;;;;;8186894;28;20287;-70
2023/04/24 14:56:42;;;;;;;2.17;1.90;;;15.50;12.10;;;;;;8189946;28;20216;-69
2023/04/24 15:01:25;;;;;;;2.57;1.80;;;15.60;7.50;;;;;;8261833;28;20224;-70
2023/04/24 15:05:59;;;;;;;2.70;1.97;;;15.70;14.10;;;;;;8275252;28;20206;-70
2023/04/24 15:10:17;;;;;;;2.63;2.10;;;15.80;15.20;;;;;;8178056;28;20223;-70
2023/04/24 15:14:32;;;;;;;2.47;1.90;;;16.10;1.00;;;;;;8292722;28;20190;-70
2023/04/24 15:19:01;;;;;;;;;;;;;;;;;;;;;
2023/04/24 15:29:16;;;;;;;3.07;1.70;;;16.50;1.00;;;;;;8306409;28;20193;-69
2023/04/24 15:33:02;;;;;;;1.97;1.63;;;16.70;1.00;;;;;;8300190;28;20209;-69
2023/04/24 15:37:26;;;;;;;3.03;2.13;;;16.90;1.00;;;;;;8298282;28;20190;-70
2023/04/24 15:41:38;;;;;;;2.27;1.40;;;16.80;1.00;;;;;;8314792;28;20232;-70
2023/04/24 15:46:03;;;;;;;2.17;1.50;;;16.70;1.00;;;;;;8303385;28;20205;-70
2023/04/24 15:50:24;;;;;;;2.30;2.10;;;16.60;1.00;;;;;;8308713;28;20249;-70
2023/04/24 15:55:05;;;;;;;2.70;1.80;;;16.30;1.00;;;;;;8308666;28;20190;-71
2023/04/24 15:59:29;;;;;;;2.63;2.10;;;15.90;1.00;;;;;;8178512;28;20223;-69
2023/04/24 16:04:12;;;;;;;4.33;2.30;;;15.60;1.00;;;;;;8252034;28;20289;-70
2023/04/24 16:08:22;;;;;;;2.97;2.10;;;15.10;46.40;;;;;;8309343;28;20209;-70
2023/04/24 16:12:29;;;;;;;4.30;2.27;;;14.70;99.90;;;;;;8309700;28;20247;-71
2023/04/24 16:17:03;;;;;;;19.60;17.43;;;14.50;99.90;;;;;;8308647;28;20190;-70
2023/04/24 16:21:08;;;;;;;16.87;14.10;;;14.50;99.90;;;;;;8272987;28;20203;-71
2023/04/24 16:25:45;;;;;;;22.97;16.23;;;14.40;99.90;;;;;;8276866;28;20295;-70
2023/04/24 16:30:09;;;;;;;32.50;22.47;;;14.50;99.90;;;;;;8191906;28;20220;-70
2023/04/24 16:39:37;;;;;;;5.93;5.17;;;13.80;1.00;;;;;;8318018;28;20206;-72
2023/04/24 16:44:04;;;;;;;7.90;5.87;;;13.70;1.00;;;;;;8311897;28;20195;-67
2023/04/24 16:48:11;;;;;;;7.77;5.20;;;13.80;1.00;;;;;;8328339;28;20198;-70
2023/04/24 16:52:56;;;;;;;;;;;;;;;;;;;;;
2023/04/24 16:56:43;;;;;;;4.63;3.17;;;13.90;99.90;;;;;;8322039;28;20221;-70
2023/04/24 17:01:19;;;;;;;4.20;2.90;;;14.00;99.90;;;;;;8310099;28;20209;-70
2023/04/24 17:05:27;;;;;;;3.13;2.47;;;14.00;99.90;;;;;;8316921;28;20198;-71
2023/04/24 17:09:40;;;;;;;4.87;3.20;;;13.90;99.90;;;;;;8326433;28;20265;-71
2023/04/24 17:13:49;;;;;;;2.73;2.33;;;13.80;99.90;;;;;;8334038;28;20224;-71
2023/04/24 17:18:11;;;;;;;2.60;2.00;;;13.70;99.90;;;;;;8314969;28;20201;-70
2023/04/24 17:22:15;;;;;;;2.83;1.93;;;13.60;99.90;;;;;;8299028;28;20197;-66
2023/04/24 17:26:37;;;;;;;4.20;2.23;;;13.50;99.90;;;;;;8324690;28;20253;-66
2023/04/24 17:31:06;;;;;;;2.97;2.13;;;13.30;99.90;;;;;;8312965;28;20213;-71
2023/04/24 17:35:14;;;;;;;2.67;1.97;;;13.10;99.90;;;;;;8318530;28;20190;-71
2023/04/24 17:39:24;;;;;;;3.67;2.17;;;12.90;99.90;;;;;;8317830;28;20197;-69
2023/04/24 17:43:41;;;;;;;3.07;2.27;;;12.80;99.90;;;;;;8308508;28;20200;-71
2023/04/24 17:47:45;;;;;;;4.73;2.77;;;12.70;99.90;;;;;;8317118;28;20213;-69
2023/04/24 17:52:49;;;;;;;3.73;2.47;;;12.60;99.90;;;;;;8317493;28;20305;-70
2023/04/24 17:57:19;;;;;;;2.73;2.20;;;12.50;99.90;;;;;;8227665;28;20220;-70
2023/04/24 18:01:22;;;;;;;3.93;2.57;;;12.60;99.90;;;;;;8296312;28;20206;-70
2023/04/24 18:05:30;;;;;;;2.80;2.07;;;12.50;99.90;;;;;;8301644;28;20201;-72
2023/04/24 18:09:42;;;;;;;2.67;2.13;;;12.50;99.90;;;;;;8319003;28;20216;-70
2023/04/24 18:13:49;;;;;;;3.77;2.17;;;12.40;99.90;;;;;;8293630;28;20202;-71
2023/04/24 18:18:17;;;;;;;3.20;2.50;;;12.30;99.90;;;;;;8302600;28;20201;-68
2023/04/24 18:22:28;;;;;;;3.57;2.67;;;12.20;99.90;;;;;;8299080;28;20209;-67
2023/04/24 18:26:42;;;;;;;;;;;;;;;;;;;;;
2023/04/24 18:30:49;;;;;;;3.63;2.83;;;11.70;99.90;;;;;;8311439;28;20261;-68
2023/04/24 18:34:59;;;;;;;4.70;3.17;;;11.50;99.90;;;;;;8307511;28;20201;-68
2023/04/24 18:39:00;;;;;;;4.93;3.30;;;11.30;99.90;;;;;;8301623;28;20205;-67
2023/04/24 18:43:13;;;;;;;6.27;3.70;;;11.20;99.90;;;;;;8300942;28;20192;-67
2023/04/24 18:47:35;;;;;;;6.47;3.70;;;11.10;99.90;;;;;;8300631;28;20276;-68
2023/04/24 18:56:44;;;;;;;6.97;4.50;;;11.10;99.90;;;;;;8445884;22;20382;-69
2023/04/24 19:00:55;;;;;;;6.33;4.50;;;11.00;99.90;;;;;;8300996;28;20234;-68
2023/04/24 19:10:35;;;;;;;7.83;4.33;;;10.80;99.90;;;;;;8279775;28;20297;-67
2023/04/24 19:20:07;;;;;;;5.07;3.53;;;10.70;99.90;;;;;;8196005;28;20264;-69
2023/04/24 19:24:57;;;;;;;5.63;3.27;;;10.70;99.90;;;;;;8333089;28;20193;-66
2023/04/24 19:29:04;;;;;;;3.67;2.63;;;10.70;99.90;;;;;;8307913;28;20336;-70
2023/04/24 19:33:35;;;;;;;2.30;2.00;;;10.70;78.60;;;;;;8311007;28;20203;-69
2023/04/24 19:37:43;;;;;;;3.00;2.00;;;10.70;11.20;;;;;;8310300;28;20192;-69
2023/04/24 19:42:03;;;;;;;3.13;2.20;;;10.80;1.00;;;;;;8312425;28;20190;-69
2023/04/24 19:46:18;;;;;;;2.73;1.70;;;10.80;1.00;;;;;;8305240;28;20229;-69
2023/04/24 19:50:21;;;;;;;4.63;1.70;;;10.80;1.00;;;;;;8323363;28;20225;-70
2023/04/24 19:55:01;;;;;;;2.03;1.50;;;10.80;1.00;;;;;;8301735;28;20195;-70
2023/04/24 20:03:23;;;;;;;1.83;1.20;;;10.90;1.00;;;;;;8287806;28;20200;-68
2023/04/24 20:07:45;;;;;;;3.33;1.30;;;10.90;1.00;;;;;;8282769;28;20233;-67
2023/04/24 20:11:55;;;;;;;1.17;1.00;;;10.80;1.00;;;;;;8275745;28;20215;-68
2023/04/24 20:16:06;;;;;;;1.63;0.90;;;10.70;1.00;;;;;;8276349;28;20188;-66
2023/04/24 20:20:08;;;;;;;2.03;0.80;;;10.60;1.00;;;;;;8273982;28;20203;-68
2023/04/24 20:24:38;;;;;;;2.37;0.97;;;10.50;1.00;;;;;;8276608;28;20230;-69
2023/04/24 20:28:49;;;;;;;1.63;0.70;;;10.50;1.00;;;;;;8289831;28;20301;-68
2023/04/24 20:33:22;;;;;;;0.90;0.50;;;10.40;1.00;;;;;;8267464;28;20201;-69
2023/04/24 20:37:35;;;;;;;1.17;0.80;;;10.40;1.00;;;;;;8263960;28;20208;-70
2023/04/24 20:47:06;;;;;;;1.63;0.67;;;10.30;1.00;;;;;;8280686;28;20314;-68
2023/04/24 20:51:41;;;;;;;1.07;0.47;;;10.30;1.00;;;;;;8272466;28;20223;-67
2023/04/24 21:00:19;;;;;;;0.90;0.60;;;10.20;1.00;;;;;;8275697;28;20218;-70
2023/04/24 21:04:36;;;;;;;0.97;0.50;;;10.10;1.00;;;;;;8270416;28;20273;-71
2023/04/24 21:08:56;;;;;;;3.23;0.57;;;10.00;1.00;;;;;;8272369;28;20264;-72
2023/04/24 21:13:23;;;;;;;0.67;0.37;;;10.10;1.00;;;;;;8273038;28;20182;-68
2023/04/24 21:17:38;;;;;;;0.77;0.40;;;10.00;1.00;;;;;;8287331;28;20187;-67
2023/04/24 21:21:40;;;;;;;3.27;0.20;;;10.00;1.00;;;;;;8267728;28;20198;-68
2023/04/24 21:25:50;;;;;;;1.80;0.50;;;9.90;1.00;;;;;;8269623;28;20190;-68
2023/04/24 21:30:24;;;;;;;1.83;0.40;;;9.80;1.00;;;;;;8266361;28;20200;-69
2023/04/24 21:34:42;;;;;;;0.50;0.43;;;9.70;1.00;;;;;;8269141;28;20191;-68
2023/04/24 21:39:10;;;;;;;3.13;0.80;;;9.60;1.00;;;;;;8279429;28;20289;-68
2023/04/24 21:43:24;;;;;;;2.03;0.47;;;9.50;1.00;;;;;;8280061;28;20178;-68
2023/04/24 21:47:34;;;;;;;0.50;0.40;;;9.50;1.00;;;;;;8285595;28;20212;-68
2023/04/24 21:51:46;;;;;;;0.40;0.30;;;9.40;1.00;;;;;;8285795;28;20203;-68
2023/04/24 21:56:13;;;;;;;5.10;0.50;;;9.40;1.00;;;;;;8267054;28;20189;-68
2023/04/24 22:00:55;;;;;;;2.00;0.33;;;9.40;1.00;;;;;;8167653;28;20218;-68
2023/04/24 22:05:33;;;;;;;;;;;;;;;;;;;;;
2023/04/24 22:09:44;;;;;;;1.13;0.30;;;9.30;1.00;;;;;;8284678;28;20247;-67
2023/04/24 22:13:45;;;;;;;3.23;0.30;;;9.20;1.00;;;;;;8273346;28;20179;-69
2023/04/24 22:17:52;;;;;;;0.90;0.37;;;9.10;1.00;;;;;;8279217;28;20313;-68
2023/04/24 22:22:10;;;;;;;0.77;0.40;;;9.00;1.00;;;;;;8283655;28;20182;-68
2023/04/24 22:26:14;;;;;;;1.83;0.47;;;8.90;1.00;;;;;;8222526;28;20199;-67
2023/04/24 22:30:38;;;;;;;0.80;0.37;;;8.90;1.00;;;;;;8226749;28;20216;-67
2023/04/24 22:35:06;;;;;;;1.13;0.40;;;8.80;1.00;;;;;;8206449;28;20195;-68
2023/04/24 22:39:16;;;;;;;1.00;0.40;;;8.80;1.00;;;;;;8200283;28;20375;-69
2023/04/24 22:43:35;;;;;;;0.60;0.50;;;8.70;1.00;;;;;;8212722;28;20278;-66
2023/04/24 22:47:45;;;;;;;0.50;0.50;;;8.70;1.00;;;;;;8217157;28;20200;-68
2023/04/24 22:51:56;;;;;;;0.60;0.47;;;8.70;1.00;;;;;;8273386;28;20225;-67
2023/04/24 22:56:16;;;;;;;4.43;0.80;;;8.70;1.00;;;;;;8288137;28;20253;-68
2023/04/24 23:00:50;;;;;;;0.87;0.70;;;8.70;1.00;;;;;;8264890;28;20206;-68
2023/04/24 23:05:03;;;;;;;1.33;0.60;;;8.50;1.00;;;;;;8261985;28;20203;-68
2023/04/24 23:09:18;;;;;;;0.87;0.70;;;8.40;1.00;;;;;;8272189;28;20346;-65
2023/04/24 23:13:37;;;;;;;0.77;0.77;;;8.30;1.00;;;;;;8267767;28;20198;-68
2023/04/24 23:17:43;;;;;;;1.73;0.80;;;8.30;1.00;;;;;;8271325;28;20187;-66
2023/04/24 23:22:02;;;;;;;0.90;0.80;;;8.20;1.00;;;;;;8281177;28;20198;-68
2023/04/24 23:26:12;;;;;;;0.87;0.87;;;8.20;1.00;;;;;;8264347;28;20194;-67
2023/04/24 23:30:35;;;;;;;;;;;;;;;;;;;;;
2023/04/24 23:40:27;;;;;;;;;;;;;;;;;;;;;
2023/04/24 23:45:00;;;;;;;3.80;1.37;;;7.90;1.00;;;;;;8284494;28;20215;-68
2023/04/24 23:49:08;;;;;;;2.30;1.20;;;7.80;1.00;;;;;;8266603;28;20230;-67
2023/04/24 23:53:25;;;;;;;1.33;1.23;;;7.70;1.00;;;;;;8270933;28;20199;-68
2023/04/24 23:57:47;;;;;;;1.77;1.30;;;7.60;1.00;;;;;;8266785;28;20211;-68
